Las horas y fechas están en horario UTC
Sumar 1 hora en el horario de invierno y 2 en el de verano

Informes METAR cercanos

 

LEZL - Sevilla (civ/Mil, Spain
Distance from station: NNE 24km
Actualización: 21/02/2017 21:30
Despejado
Despejado
 Viento del SO
Viento: SO 2 km/h
Temperatura: 15°C
Rocío: 10°C
Humedad: 72%
Barómetro: 1017 hPa
Resumen: Despejado
Visibility: greater than 10 km
2017/02/21 20:30 LEZL 212030Z 23001KT CAVOK 15/10 Q1017 NOSIG
LEMO - Moron (sp-Usafb), Spain
Distance from station: E 38km
Actualización: 21/02/2017 21:00
Few Clouds
Few Clouds
 Viento del SE
Viento: SE 7 km/h
Temperatura: 13°C
Rocío: 7°C
Humedad: 67%
Barómetro: 1017 hPa
Clouds: Few Clouds
Visibility: 10 km
Cloud details: Few Clouds 1676 m
2017/02/21 20:00 LEMO 212000Z 14004KT 110V270 9999 FEW055 13/07 Q1017 NOSIG
LEJR - Jerez (civ/Mil), Spain
Distance from station: S 53km
Actualización: 21/02/2017 22:00
Despejado
Despejado
 Viento del ENE
Viento: ENE 17 km/h
Temperatura: 15°C
Rocío: 8°C
Humedad: 63%
Barómetro: 1017 hPa
Resumen: Despejado
Visibility: greater than 10 km
2017/02/21 21:00 LEJR 212100Z 07009KT CAVOK 15/08 Q1017
 
LERT - Rota Naval Stati, Spain
Distance from station: SSO 71km
Actualización: 21/02/2017 21:00
Despejado
Despejado
 Viento del ESE
Viento: ESE 30 km/h
Temperatura: 15°C
Rocío: 9°C
Humedad: 68%
Barómetro: 1017 hPa
Resumen: Despejado
Visibility: greater than 10 km
2017/02/21 20:00 LERT 212000Z 12016KT CAVOK 15/09 Q1017 NOSIG
LEBA - Cordoba Airport, Spain
Distance from station: ENE 128km
Actualización: 21/02/2017 21:30
Despejado
Despejado
 Viento del varies
Viento: varies 4 km/h
Temperatura: 13°C
Rocío: 8°C
Humedad: 72%
Barómetro: 1017 hPa
Clouds: Despejado
Visibility: 10 km
2017/02/21 20:30 LEBA 212030Z AUTO VRB02KT 9999 NCD 13/08 Q1017
LXGB - Gibraltar (civ/M, Gibraltar
Distance from station: SSE 137km
Actualización: 21/02/2017 20:50
Haze, Few clouds
Haze, Few clouds
 Viento del E
Viento: E 30 km/h
Temperatura: 14°C
Rocío: 11°C
Humedad: 82%
Barómetro: 1018 hPa
Resumen: Haze
Clouds: Few Clouds
Visibility: 8 km
Cloud details: Few Clouds 427 m
2017/02/21 19:50 LXGB 211950Z 10016KT 8000 HZ FEW014 14/11 Q1018 NOSIG
 
LEMG - Malaga (civ/Mil), Spain
Distance from station: ESE 150km
Actualización: 21/02/2017 21:30
Despejado
Despejado
 Viento del ONO
Viento: ONO 6 km/h
Temperatura: 13°C
Rocío: 10°C
Humedad: 82%
Barómetro: 1018 hPa
Resumen: Despejado
Visibility: greater than 10 km
2017/02/21 20:30 LEMG 212030Z 29003KT 260V320 CAVOK 13/10 Q1018 NOSIG
GMTT - Tangier/Boukhalf, Morocco
Distance from station: S 169km
Actualización: 21/02/2017 21:30
Parcialmente nuboso
Parcialmente nuboso
 Viento del E
Viento: E 28 km/h
Temperatura: 14°C
Rocío: 10°C
Humedad: 77%
Barómetro: 1016 hPa
Clouds: Parcialmente nuboso
Visibility: 8 km
Cloud details: Few Clouds 305 m
Parcialmente nuboso 610 m
2017/02/21 20:30 GMTT 212030Z 08015KT 8000 FEW010 SCT020 14/10 Q1016 NOSIG
LPFR - Faro, Portugal
Distance from station: O 172km
Actualización: 21/02/2017 21:30
Few Clouds
Few Clouds
 Viento del E
Viento: E 9 km/h
Temperatura: 14°C
Rocío: 11°C
Humedad: 82%
Barómetro: 1017 hPa
Clouds: Few Clouds
Visibility: 10 km
Cloud details: Few Clouds 1067 m
2017/02/21 20:30 LPFR 212030Z 09005KT 9999 FEW035 14/11 Q1017
 
LPBJ - Beja (por/Ger-Af, Portugal
Distance from station: ONO 192km
Actualización: 21/02/2017 21:00
Despejado
Despejado
 Viento del NE
Viento: NE 13 km/h
Temperatura: 14°C
Rocío: 6°C
Humedad: 59%
Barómetro: 1017 hPa
Resumen: Despejado
Visibility: greater than 10 km
2017/02/21 20:00 LPBJ 212000Z 04007KT CAVOK 14/06 Q1017
LEBZ - Talavera Ab/Bada, Spain
Distance from station: NNO 194km
Actualización: 21/02/2017 21:00
Despejado
Despejado
 Viento del NNE
Viento: NNE 6 km/h
Temperatura: 13°C
Rocío: 5°C
Humedad: 59%
Barómetro: 1018 hPa
Resumen: Despejado
Visibility: greater than 10 km
2017/02/21 20:00 LEBZ 212000Z 02003KT CAVOK 13/05 Q1018
LEMD - Madrid/Barajas, Spain
Distance from station: NE 415km
Actualización: 21/02/2017 21:30
Despejado
Despejado
 Viento del N
Viento: N 9 km/h
Temperatura: 8°C
Wind Chill: 6°C
Rocío: -1°C
Humedad: 53%
Barómetro: 1022 hPa
Resumen: Despejado
Visibility: greater than 10 km
2017/02/21 20:30 LEMD 212030Z 36005KT CAVOK 08/M01 Q1022 NOSIG